createdAt,value
2018-12-08T00:00:17.656Z,9.80
2018-12-08T00:02:48.361Z,9.76
2018-12-08T00:05:19.414Z,9.70
2018-12-08T00:07:50.190Z,9.51
2018-12-08T00:10:21.059Z,9.35
2018-12-08T00:12:51.693Z,9.28
2018-12-08T00:15:22.379Z,9.35
2018-12-08T00:17:53.387Z,9.12
2018-12-08T00:20:24.057Z,9.06
2018-12-08T00:22:54.726Z,8.98
2018-12-08T00:25:26.227Z,9.04
2018-12-08T00:27:57.026Z,8.93
2018-12-08T00:30:39.146Z,8.85
2018-12-08T00:33:09.898Z,8.79
2018-12-08T00:35:41.623Z,8.79
2018-12-08T00:38:12.430Z,8.83
2018-12-08T00:40:43.574Z,8.97
2018-12-08T00:43:14.233Z,9.00
2018-12-08T00:45:44.871Z,8.99
2018-12-08T00:48:15.527Z,9.04
2018-12-08T00:50:46.170Z,9.09
2018-12-08T00:53:16.886Z,9.07
2018-12-08T00:55:47.574Z,9.06
2018-12-08T00:58:18.278Z,9.07
2018-12-08T01:00:48.905Z,9.01
2018-12-08T01:03:19.703Z,8.96
2018-12-08T01:05:50.443Z,8.84
2018-12-08T01:08:23.020Z,8.79
2018-12-08T01:10:55.102Z,8.94
2018-12-08T01:13:26.798Z,9.03
2018-12-08T01:15:58.343Z,9.14
2018-12-08T01:18:29.049Z,9.11
2018-12-08T01:20:59.725Z,9.16
2018-12-08T01:23:30.419Z,9.06
2018-12-08T01:26:01.086Z,9.00
2018-12-08T01:28:31.860Z,8.92
2018-12-08T01:31:04.389Z,8.89
2018-12-08T01:33:35.030Z,8.81
2018-12-08T01:36:05.756Z,8.74
2018-12-08T01:38:36.519Z,8.68
2018-12-08T01:41:07.198Z,8.69
2018-12-08T01:43:37.877Z,8.68
2018-12-08T01:46:08.792Z,8.80
2018-12-08T01:48:39.495Z,8.85
2018-12-08T01:51:10.257Z,8.86
2018-12-08T01:53:41.176Z,8.98
2018-12-08T01:56:11.799Z,9.06
2018-12-08T01:58:42.581Z,9.01
2018-12-08T02:01:13.336Z,9.14
2018-12-08T02:03:44.045Z,9.14
2018-12-08T02:06:14.995Z,9.17
2018-12-08T02:08:45.626Z,9.05
2018-12-08T02:11:24.844Z,9.08
2018-12-08T02:13:51.086Z,9.01
2018-12-08T02:16:21.798Z,8.85
2018-12-08T02:18:52.457Z,8.81
2018-12-08T02:21:23.378Z,8.64
2018-12-08T02:23:54.021Z,8.57
2018-12-08T02:26:24.902Z,8.68
2018-12-08T02:28:55.590Z,8.65
2018-12-08T02:31:26.260Z,8.65
2018-12-08T02:33:58.065Z,8.69
2018-12-08T02:36:29.002Z,8.69
2018-12-08T02:38:59.858Z,8.77
2018-12-08T02:41:32.167Z,8.85
2018-12-08T02:44:05.279Z,8.88
2018-12-08T02:46:37.065Z,8.95
2018-12-08T02:49:07.871Z,8.79
2018-12-08T02:51:38.575Z,8.76
2018-12-08T02:54:09.290Z,8.71
2018-12-08T02:56:40.015Z,8.71
2018-12-08T02:59:13.810Z,8.70
2018-12-08T03:01:45.441Z,8.67
2018-12-08T03:04:16.246Z,8.44
2018-12-08T03:06:46.945Z,8.62
2018-12-08T03:09:18.946Z,8.64
2018-12-08T03:11:49.601Z,8.59
2018-12-08T03:14:20.312Z,8.68
2018-12-08T03:16:51.142Z,8.75
2018-12-08T03:19:21.897Z,8.73
2018-12-08T03:21:52.589Z,8.65
2018-12-08T03:24:23.260Z,8.71
2018-12-08T03:26:54.241Z,8.69
2018-12-08T03:29:24.964Z,8.68
2018-12-08T03:31:55.619Z,8.56
2018-12-08T03:34:26.394Z,8.49
2018-12-08T03:36:57.027Z,8.37
2018-12-08T03:39:27.614Z,8.50
2018-12-08T03:41:58.514Z,8.37
2018-12-08T03:44:29.145Z,8.39
2018-12-08T03:47:00.612Z,8.40
2018-12-08T03:49:34.444Z,8.28
2018-12-08T03:52:07.267Z,8.26
2018-12-08T03:54:38.176Z,8.35
2018-12-08T03:57:08.996Z,8.38
2018-12-08T03:59:39.742Z,8.30
2018-12-08T04:02:10.468Z,8.43
2018-12-08T04:04:41.179Z,8.38
2018-12-08T04:07:12.313Z,8.38
2018-12-08T04:09:43.023Z,8.35
2018-12-08T04:12:13.942Z,8.20
2018-12-08T04:14:44.716Z,8.23
2018-12-08T04:17:15.395Z,8.22
2018-12-08T04:19:46.165Z,8.28
2018-12-08T04:22:16.860Z,8.34
2018-12-08T04:24:49.624Z,8.32
2018-12-08T04:27:20.416Z,8.33
2018-12-08T04:29:51.102Z,8.12
2018-12-08T04:32:21.813Z,8.18
2018-12-08T04:34:52.470Z,8.11
2018-12-08T04:37:25.227Z,8.16
2018-12-08T04:39:57.754Z,8.01
2018-12-08T04:42:28.422Z,8.00
2018-12-08T04:44:59.166Z,7.99
2018-12-08T04:47:29.875Z,8.00
2018-12-08T04:50:01.652Z,7.95
2018-12-08T04:52:32.309Z,7.85
2018-12-08T04:55:03.690Z,7.89
2018-12-08T04:57:34.486Z,7.86
2018-12-08T05:00:05.623Z,7.89
2018-12-08T05:02:36.938Z,7.96
2018-12-08T05:05:07.754Z,7.96
2018-12-08T05:07:38.421Z,7.84
2018-12-08T05:10:09.619Z,7.89
2018-12-08T05:12:40.330Z,7.72
2018-12-08T05:15:11.042Z,7.75
2018-12-08T05:17:41.782Z,8.00
2018-12-08T05:20:12.544Z,7.95
2018-12-08T05:22:43.269Z,7.90
2018-12-08T05:25:13.927Z,7.89
2018-12-08T05:27:44.716Z,7.98
2018-12-08T05:30:15.477Z,7.77
2018-12-08T05:32:46.301Z,7.78
2018-12-08T05:35:17.046Z,7.69
2018-12-08T05:37:47.661Z,7.76
2018-12-08T05:40:18.330Z,7.65
2018-12-08T05:42:49.010Z,7.73
2018-12-08T05:45:31.797Z,7.67
2018-12-08T05:48:06.248Z,7.75
2018-12-08T05:50:37.325Z,7.78
2018-12-08T05:53:07.998Z,7.82
2018-12-08T05:55:38.658Z,7.87
2018-12-08T05:58:09.345Z,7.95
2018-12-08T06:00:40.338Z,7.88
2018-12-08T06:03:11.218Z,7.70
2018-12-08T06:05:43.125Z,7.69
2018-12-08T06:08:13.978Z,7.62
2018-12-08T06:10:44.630Z,7.67
2018-12-08T06:13:15.310Z,7.64
2018-12-08T06:15:45.958Z,7.66
2018-12-08T06:18:16.577Z,7.64
2018-12-08T06:20:48.700Z,7.57
2018-12-08T06:23:19.423Z,7.53
2018-12-08T06:25:50.102Z,7.61
2018-12-08T06:28:24.983Z,7.62
2018-12-08T06:30:56.846Z,7.70
2018-12-08T06:33:27.527Z,7.70
2018-12-08T06:35:58.429Z,7.67
2018-12-08T06:38:29.074Z,7.70
2018-12-08T06:41:03.223Z,7.64
2018-12-08T06:43:33.850Z,7.68
2018-12-08T06:46:05.523Z,7.70
2018-12-08T06:48:36.522Z,7.84
2018-12-08T06:51:07.176Z,7.82
2018-12-08T06:53:37.775Z,7.84
2018-12-08T06:56:08.676Z,7.90
2018-12-08T06:58:39.360Z,7.90
2018-12-08T07:01:10.037Z,7.91
2018-12-08T07:03:40.845Z,8.08
2018-12-08T07:06:11.810Z,8.09
2018-12-08T07:08:43.223Z,8.09
2018-12-08T07:11:14.223Z,8.07
2018-12-08T07:13:44.938Z,7.95
2018-12-08T07:16:15.918Z,7.91
2018-12-08T07:18:46.709Z,7.98
2018-12-08T07:21:17.318Z,7.91
2018-12-08T07:23:48.287Z,7.96
2018-12-08T07:26:18.985Z,8.02
2018-12-08T07:28:49.698Z,8.06
2018-12-08T07:31:20.711Z,7.92
2018-12-08T07:33:51.427Z,7.91
2018-12-08T07:36:22.154Z,7.94
2018-12-08T07:38:52.889Z,7.99
2018-12-08T07:41:23.698Z,8.00
2018-12-08T07:43:54.527Z,7.87
2018-12-08T07:46:26.079Z,7.83
2018-12-08T07:48:56.906Z,7.80
2018-12-08T07:51:27.650Z,7.79
2018-12-08T07:53:58.405Z,7.96
2018-12-08T07:56:29.889Z,7.90
2018-12-08T07:59:00.570Z,7.90
2018-12-08T08:01:33.503Z,7.84
2018-12-08T08:04:05.372Z,7.90
2018-12-08T08:06:36.041Z,7.79
2018-12-08T08:09:07.174Z,7.89
2018-12-08T08:11:39.019Z,7.98
2018-12-08T08:14:09.732Z,8.09
2018-12-08T08:16:40.611Z,8.07
2018-12-08T08:19:11.235Z,7.99
2018-12-08T08:21:43.721Z,8.04
2018-12-08T08:24:14.681Z,8.22
2018-12-08T08:26:45.458Z,8.03
2018-12-08T08:29:18.398Z,8.14
2018-12-08T08:31:49.202Z,8.01
2018-12-08T08:34:19.930Z,7.76
2018-12-08T08:36:50.664Z,8.14
2018-12-08T08:39:21.326Z,8.16
2018-12-08T08:41:52.589Z,8.08
2018-12-08T08:44:23.213Z,8.23
2018-12-08T08:46:54.206Z,8.20
2018-12-08T08:49:26.027Z,8.11
2018-12-08T08:51:56.710Z,8.11
2018-12-08T08:54:27.373Z,8.25
2018-12-08T08:56:59.282Z,8.31
2018-12-08T08:59:30.002Z,8.31
2018-12-08T09:02:00.729Z,8.18
2018-12-08T09:04:32.672Z,8.15
2018-12-08T09:07:07.169Z,8.13
2018-12-08T09:09:37.832Z,8.23
2018-12-08T09:12:08.476Z,8.16
2018-12-08T09:14:39.569Z,8.36
2018-12-08T09:17:10.257Z,8.41
2018-12-08T09:19:40.874Z,8.52
2018-12-08T09:22:11.574Z,8.55
2018-12-08T09:24:42.619Z,8.73
2018-12-08T09:27:14.257Z,8.62
2018-12-08T09:29:44.905Z,8.66
2018-12-08T09:32:16.006Z,8.61
2018-12-08T09:34:46.665Z,8.68
2018-12-08T09:37:17.623Z,8.88
2018-12-08T09:39:48.431Z,9.02
2018-12-08T09:42:20.642Z,9.01
2018-12-08T09:44:51.373Z,8.91
2018-12-08T09:47:22.228Z,9.21
2018-12-08T09:49:52.822Z,9.00
2018-12-08T09:52:23.501Z,9.01
2018-12-08T09:54:54.174Z,9.07
2018-12-08T09:57:24.774Z,9.07
2018-12-08T09:59:55.458Z,9.29
2018-12-08T10:02:26.076Z,9.33
2018-12-08T10:04:56.765Z,9.56
2018-12-08T10:07:28.309Z,9.50
2018-12-08T10:09:58.910Z,9.37
2018-12-08T10:12:30.324Z,9.30
2018-12-08T10:15:01.100Z,9.41
2018-12-08T10:17:34.918Z,9.62
2018-12-08T10:20:11.609Z,9.68
2018-12-08T10:25:36.609Z,10.32
2018-12-08T10:28:11.450Z,10.21
2018-12-08T10:30:45.834Z,10.12
2018-12-08T10:33:33.469Z,10.43
2018-12-08T10:36:09.029Z,10.63
2018-12-08T10:38:39.741Z,10.34
2018-12-08T10:41:11.030Z,10.69
2018-12-08T10:43:42.001Z,11.09
2018-12-08T10:46:12.946Z,11.32
2018-12-08T10:48:50.127Z,11.00
2018-12-08T10:51:23.146Z,11.27
2018-12-08T10:54:02.406Z,11.32
2018-12-08T10:56:36.794Z,11.50
2018-12-08T10:59:08.115Z,11.37
2018-12-08T11:01:43.902Z,11.84
2018-12-08T11:04:19.957Z,12.07
2018-12-08T11:06:52.499Z,12.29
2018-12-08T11:09:23.326Z,12.09
2018-12-08T11:11:54.692Z,12.28
2018-12-08T11:14:25.432Z,12.29
2018-12-08T11:16:56.302Z,12.23
2018-12-08T11:19:26.948Z,12.18
2018-12-08T11:21:58.701Z,12.68
2018-12-08T11:24:30.082Z,12.37
2018-12-08T11:27:03.509Z,12.57
2018-12-08T11:29:34.228Z,12.73
2018-12-08T11:32:07.266Z,12.90
2018-12-08T11:34:43.833Z,13.11
2018-12-08T11:37:25.129Z,13.52
2018-12-08T11:39:55.742Z,13.71
2018-12-08T11:42:26.532Z,13.42
2018-12-08T11:44:57.577Z,13.03
2018-12-08T11:47:29.074Z,13.41
2018-12-08T11:49:59.732Z,13.36
2018-12-08T11:52:30.434Z,13.30
2018-12-08T11:55:06.265Z,13.27
2018-12-08T11:57:36.919Z,13.07
2018-12-08T12:00:09.221Z,12.85
2018-12-08T12:02:39.923Z,13.10
2018-12-08T12:05:10.770Z,12.99
2018-12-08T12:07:41.856Z,13.01
2018-12-08T12:10:12.567Z,12.83
2018-12-08T12:12:43.206Z,12.74
2018-12-08T12:15:13.874Z,12.69
2018-12-08T12:17:45.711Z,12.67
2018-12-08T12:20:16.447Z,12.57
2018-12-08T12:22:47.193Z,12.97
2018-12-08T12:25:18.377Z,13.18
2018-12-08T12:27:49.231Z,12.59
2018-12-08T12:30:20.001Z,13.04
2018-12-08T12:32:50.662Z,13.22
2018-12-08T12:35:22.038Z,13.24
2018-12-08T12:37:53.613Z,13.26
2018-12-08T12:40:24.869Z,13.51
2018-12-08T12:42:55.514Z,13.95
2018-12-08T12:45:26.107Z,14.18
2018-12-08T12:47:56.953Z,14.05
2018-12-08T12:50:27.626Z,14.60
2018-12-08T12:52:58.277Z,15.49
2018-12-08T12:55:29.087Z,16.31
2018-12-08T12:57:59.717Z,17.07
2018-12-08T13:00:30.549Z,17.72
2018-12-08T13:03:05.409Z,18.57
2018-12-08T13:05:36.110Z,18.96
2018-12-08T13:08:08.098Z,19.81
2018-12-08T13:10:39.778Z,18.60
2018-12-08T13:13:10.467Z,17.65
2018-12-08T13:15:41.119Z,17.05
2018-12-08T13:18:11.826Z,16.15
2018-12-08T13:20:48.632Z,15.29
2018-12-08T13:23:21.190Z,15.00
2018-12-08T13:25:52.047Z,14.52
2018-12-08T13:28:22.730Z,14.49
2018-12-08T13:30:54.037Z,14.52
2018-12-08T13:33:25.073Z,14.44
2018-12-08T13:36:05.174Z,14.37
2018-12-08T13:38:37.090Z,14.12
2018-12-08T13:41:08.127Z,14.24
2018-12-08T13:43:38.784Z,14.55
2018-12-08T13:46:10.098Z,14.35
2018-12-08T13:48:40.929Z,14.64
2018-12-08T13:51:11.677Z,14.57
2018-12-08T13:53:42.302Z,14.81
2018-12-08T13:56:12.948Z,14.75
2018-12-08T13:58:43.581Z,14.63
2018-12-08T14:01:14.257Z,14.70
2018-12-08T14:03:45.073Z,14.71
2018-12-08T14:06:17.356Z,14.70
2018-12-08T14:08:47.940Z,14.97
2018-12-08T14:11:18.621Z,14.78
2018-12-08T14:13:49.366Z,14.63
2018-12-08T14:16:21.064Z,14.72
2018-12-08T14:18:51.737Z,14.80
2018-12-08T14:21:22.950Z,14.59
2018-12-08T14:23:53.692Z,14.68
2018-12-08T14:26:24.390Z,14.67
2018-12-08T14:28:55.062Z,14.89
2018-12-08T14:31:25.855Z,14.71
2018-12-08T14:33:56.774Z,14.58
2018-12-08T14:36:28.494Z,14.62
2018-12-08T14:38:59.782Z,14.54
2018-12-08T14:41:30.862Z,14.54
2018-12-08T14:44:03.356Z,14.84
2018-12-08T14:46:33.999Z,14.90
2018-12-08T14:49:05.018Z,14.99
2018-12-08T14:51:35.974Z,14.67
2018-12-08T14:54:10.294Z,14.59
2018-12-08T14:56:41.042Z,14.43
2018-12-08T14:59:11.735Z,14.42
2018-12-08T15:01:42.486Z,14.59
2018-12-08T15:04:13.267Z,14.61
2018-12-08T15:06:45.406Z,14.48
2018-12-08T15:09:16.043Z,14.30
2018-12-08T15:11:46.712Z,14.34
2018-12-08T15:14:17.372Z,14.35
2018-12-08T15:16:49.855Z,14.41
2018-12-08T15:19:20.621Z,14.37
2018-12-08T15:21:51.652Z,14.49
2018-12-08T15:24:22.713Z,14.39
2018-12-08T15:26:53.401Z,14.60
2018-12-08T15:29:24.078Z,14.56
2018-12-08T15:31:54.909Z,14.33
2018-12-08T15:34:26.685Z,14.37
2018-12-08T15:36:57.331Z,14.21
2018-12-08T15:39:28.155Z,14.29
2018-12-08T15:41:58.919Z,14.27
2018-12-08T15:44:29.836Z,14.26
2018-12-08T15:47:00.523Z,14.26
2018-12-08T15:49:35.008Z,14.28
2018-12-08T15:52:05.710Z,14.11
2018-12-08T15:54:36.449Z,14.07
2018-12-08T15:57:08.003Z,14.12
2018-12-08T15:59:38.774Z,14.06
2018-12-08T16:02:09.465Z,14.07
2018-12-08T16:04:40.310Z,13.95
2018-12-08T16:07:11.063Z,13.84
2018-12-08T16:09:41.834Z,13.75
2018-12-08T16:12:13.322Z,13.65
2018-12-08T16:14:50.091Z,13.59
2018-12-08T16:17:30.749Z,13.55
2018-12-08T16:20:22.247Z,13.48
2018-12-08T16:22:57.440Z,13.43
2018-12-08T16:25:33.013Z,13.37
2018-12-08T16:28:09.277Z,13.35
2018-12-08T16:30:41.058Z,13.30
2018-12-08T16:33:13.274Z,13.22
2018-12-08T16:35:46.608Z,13.20
2018-12-08T16:38:19.526Z,13.10
2018-12-08T16:41:05.399Z,13.02
2018-12-08T16:43:36.503Z,12.94
2018-12-08T16:46:08.344Z,12.84
2018-12-08T16:48:39.715Z,12.75
2018-12-08T16:51:10.467Z,12.64
2018-12-08T16:53:41.213Z,12.54
2018-12-08T16:56:11.885Z,12.46
2018-12-08T16:58:42.654Z,12.47
2018-12-08T17:01:19.984Z,12.37
2018-12-08T17:03:50.662Z,12.19
2018-12-08T17:06:23.238Z,12.02
2018-12-08T17:08:53.944Z,11.84
2018-12-08T17:11:24.671Z,11.75
2018-12-08T17:13:58.252Z,11.57
2018-12-08T17:16:29.046Z,11.45
2018-12-08T17:19:16.955Z,11.32
2018-12-08T17:22:33.832Z,11.23
2018-12-08T17:28:46.380Z,11.09
2018-12-08T17:35:14.135Z,10.88
2018-12-08T17:38:30.392Z,10.84
2018-12-08T17:41:16.299Z,10.77
2018-12-08T17:44:08.626Z,10.66
2018-12-08T17:53:50.422Z,10.40
2018-12-08T17:56:35.057Z,10.38
2018-12-08T17:59:31.570Z,10.33
2018-12-08T18:05:25.059Z,10.26
2018-12-08T18:08:10.872Z,10.23
2018-12-08T18:10:51.554Z,10.15
2018-12-08T18:13:34.123Z,10.12
2018-12-08T18:19:20.268Z,10.22
2018-12-08T18:22:17.039Z,10.13
2018-12-08T18:32:43.871Z,9.68
2018-12-08T18:35:39.286Z,10.00
2018-12-08T18:38:39.490Z,9.93
2018-12-08T18:41:25.938Z,9.83
2018-12-08T18:44:37.652Z,9.79
2018-12-08T19:23:24.793Z,9.30
2018-12-08T19:39:30.124Z,9.08
2018-12-08T19:42:01.070Z,9.17
2018-12-08T19:47:19.932Z,9.06
2018-12-08T19:49:51.429Z,9.09
2018-12-08T19:52:22.427Z,9.12
2018-12-08T19:54:54.548Z,9.08
2018-12-08T19:57:25.799Z,9.08
2018-12-08T19:59:56.687Z,9.09
2018-12-08T20:02:28.385Z,9.05
2018-12-08T20:04:59.113Z,9.04
2018-12-08T20:07:31.406Z,9.01
2018-12-08T20:10:07.513Z,9.03
2018-12-08T20:12:38.485Z,9.03
2018-12-08T20:15:11.696Z,8.96
2018-12-08T20:17:43.688Z,8.94
2018-12-08T20:20:14.522Z,8.90
2018-12-08T20:22:52.279Z,8.90
2018-12-08T20:25:23.088Z,8.87
2018-12-08T20:27:54.601Z,8.82
2018-12-08T20:30:26.659Z,8.77
2018-12-08T20:32:57.519Z,8.76
2018-12-08T20:35:28.370Z,8.75
2018-12-08T20:37:59.366Z,8.67
2018-12-08T20:40:30.499Z,8.70
2018-12-08T20:43:03.504Z,8.65
2018-12-08T20:45:35.829Z,8.63
2018-12-08T20:48:07.150Z,8.59
2018-12-08T20:50:38.773Z,8.56
2018-12-08T20:53:09.746Z,8.55
2018-12-08T20:55:42.055Z,8.51
2018-12-08T20:58:13.068Z,8.51
2018-12-08T21:00:44.573Z,8.51
2018-12-08T21:03:15.552Z,8.54
2018-12-08T21:05:46.567Z,8.41
2018-12-08T21:08:17.899Z,8.33
2018-12-08T21:10:49.668Z,8.40
2018-12-08T21:13:20.479Z,8.31
2018-12-08T21:15:51.188Z,8.33
2018-12-08T21:18:21.956Z,8.28
2018-12-08T21:20:52.751Z,8.22
2018-12-08T21:23:23.516Z,8.17
2018-12-08T21:25:55.242Z,8.14
2018-12-08T21:28:25.983Z,8.13
2018-12-08T21:30:57.127Z,8.14
2018-12-08T21:33:27.777Z,8.09
2018-12-08T21:35:58.652Z,8.05
2018-12-08T21:38:29.491Z,8.08
2018-12-08T21:41:03.711Z,8.13
2018-12-08T21:43:34.481Z,8.10
2018-12-08T21:46:08.369Z,8.04
2018-12-08T21:48:39.134Z,8.04
2018-12-08T21:51:11.869Z,8.02
2018-12-08T21:53:42.660Z,8.06
2018-12-08T21:56:13.509Z,7.92
2018-12-08T21:58:44.965Z,7.88
2018-12-08T22:01:15.821Z,7.85
2018-12-08T22:03:48.457Z,7.88
2018-12-08T22:06:19.426Z,7.83
2018-12-08T22:08:50.593Z,7.90
2018-12-08T22:11:22.176Z,7.97
2018-12-08T22:13:52.933Z,7.94
2018-12-08T22:16:23.948Z,7.96
2018-12-08T22:21:34.366Z,7.96
2018-12-08T22:24:05.467Z,7.92
2018-12-08T22:26:36.351Z,7.86
2018-12-08T22:29:07.573Z,7.80
2018-12-08T22:31:38.438Z,7.76
2018-12-08T22:34:10.446Z,7.64
2018-12-08T22:36:41.151Z,7.67
2018-12-08T22:39:15.702Z,7.57
2018-12-08T22:41:46.686Z,7.61
2018-12-08T22:44:17.365Z,7.53
2018-12-08T22:46:48.134Z,7.56
2018-12-08T22:52:41.161Z,7.53
2018-12-08T22:55:11.879Z,7.50
2018-12-08T22:57:43.256Z,7.55
2018-12-08T23:00:23.514Z,7.52
2018-12-08T23:02:56.278Z,7.53
2018-12-08T23:05:27.062Z,7.53
2018-12-08T23:07:59.998Z,7.52
2018-12-08T23:10:34.600Z,7.52
2018-12-08T23:13:07.455Z,7.48
2018-12-08T23:15:38.230Z,7.49
2018-12-08T23:18:10.100Z,7.50
2018-12-08T23:20:44.427Z,7.56
2018-12-08T23:23:15.159Z,7.53
2018-12-08T23:25:46.658Z,7.53
2018-12-08T23:28:17.483Z,7.49
2018-12-08T23:30:49.477Z,7.44
2018-12-08T23:33:20.332Z,7.39
2018-12-08T23:35:53.394Z,7.24
2018-12-08T23:38:24.430Z,7.17
2018-12-08T23:40:55.424Z,7.11
2018-12-08T23:43:26.494Z,7.05
2018-12-08T23:45:57.502Z,6.98
2018-12-08T23:48:28.183Z,7.04
2018-12-08T23:50:58.908Z,7.10
2018-12-08T23:53:30.106Z,7.07
2018-12-08T23:56:03.210Z,7.13
2018-12-08T23:58:34.066Z,7.18
